sensor_id;sensor_type;location;lat;lon;timestamp;pressure;altitude;pressure_sealevel;temperature;humidity
56582;BME280;42463;52.214;21.238;2023-02-14T00:01:46;101829.79;;;6.39;64.54
56582;BME280;42463;52.214;21.238;2023-02-14T00:04:11;101835.45;;;6.34;64.74
56582;BME280;42463;52.214;21.238;2023-02-14T00:06:36;101840.48;;;6.30;64.69
56582;BME280;42463;52.214;21.238;2023-02-14T00:09:02;101843.06;;;6.32;65.05
56582;BME280;42463;52.214;21.238;2023-02-14T00:11:27;101840.26;;;6.33;64.88
56582;BME280;42463;52.214;21.238;2023-02-14T00:13:51;101839.58;;;6.36;64.98
56582;BME280;42463;52.214;21.238;2023-02-14T00:16:34;101852.08;;;6.41;64.92
56582;BME280;42463;52.214;21.238;2023-02-14T00:18:59;101853.48;;;6.45;64.87
56582;BME280;42463;52.214;21.238;2023-02-14T00:21:26;101854.35;;;6.49;64.78
56582;BME280;42463;52.214;21.238;2023-02-14T00:23:52;101860.92;;;6.52;64.74
56582;BME280;42463;52.214;21.238;2023-02-14T00:26:16;101854.96;;;6.52;64.76
56582;BME280;42463;52.214;21.238;2023-02-14T00:28:42;101859.62;;;6.54;64.64
56582;BME280;42463;52.214;21.238;2023-02-14T00:31:07;101859.73;;;6.49;64.62
56582;BME280;42463;52.214;21.238;2023-02-14T00:33:32;101858.98;;;6.45;64.45
56582;BME280;42463;52.214;21.238;2023-02-14T00:35:56;101859.04;;;6.44;64.69
56582;BME280;42463;52.214;21.238;2023-02-14T00:38:21;101859.43;;;6.48;64.94
56582;BME280;42463;52.214;21.238;2023-02-14T00:40:46;101858.54;;;6.48;64.82
56582;BME280;42463;52.214;21.238;2023-02-14T00:43:10;101858.40;;;6.48;64.75
56582;BME280;42463;52.214;21.238;2023-02-14T00:45:35;101852.23;;;6.45;64.57
56582;BME280;42463;52.214;21.238;2023-02-14T00:48:00;101855.56;;;6.42;64.64
56582;BME280;42463;52.214;21.238;2023-02-14T00:50:24;101857.75;;;6.41;64.75
56582;BME280;42463;52.214;21.238;2023-02-14T00:52:49;101857.98;;;6.43;64.77
56582;BME280;42463;52.214;21.238;2023-02-14T00:55:13;101864.54;;;6.43;64.89
56582;BME280;42463;52.214;21.238;2023-02-14T00:57:38;101865.23;;;6.44;64.85
56582;BME280;42463;52.214;21.238;2023-02-14T01:00:03;101865.55;;;6.45;64.78
56582;BME280;42463;52.214;21.238;2023-02-14T01:02:28;101862.90;;;6.42;64.55
56582;BME280;42463;52.214;21.238;2023-02-14T01:04:53;101869.40;;;6.40;64.92
56582;BME280;42463;52.214;21.238;2023-02-14T01:07:17;101871.60;;;6.41;65.17
56582;BME280;42463;52.214;21.238;2023-02-14T01:09:44;101861.75;;;6.38;65.18
56582;BME280;42463;52.214;21.238;2023-02-14T01:12:09;101863.92;;;6.32;64.91
56582;BME280;42463;52.214;21.238;2023-02-14T01:14:34;101861.45;;;6.30;65.46
56582;BME280;42463;52.214;21.238;2023-02-14T01:16:59;101859.77;;;6.32;65.29
56582;BME280;42463;52.214;21.238;2023-02-14T01:19:23;101857.45;;;6.32;65.35
56582;BME280;42463;52.214;21.238;2023-02-14T01:21:48;101862.36;;;6.33;65.35
56582;BME280;42463;52.214;21.238;2023-02-14T01:24:13;101861.33;;;6.30;65.45
56582;BME280;42463;52.214;21.238;2023-02-14T01:26:40;101856.50;;;6.23;65.35
56582;BME280;42463;52.214;21.238;2023-02-14T01:29:06;101859.23;;;6.16;65.60
56582;BME280;42463;52.214;21.238;2023-02-14T01:31:33;101855.84;;;6.14;65.85
56582;BME280;42463;52.214;21.238;2023-02-14T01:33:59;101853.61;;;6.10;65.75
56582;BME280;42463;52.214;21.238;2023-02-14T01:36:27;101859.98;;;6.09;66.02
56582;BME280;42463;52.214;21.238;2023-02-14T01:38:54;101869.81;;;6.14;66.10
56582;BME280;42463;52.214;21.238;2023-02-14T01:41:20;101867.08;;;6.14;65.88
56582;BME280;42463;52.214;21.238;2023-02-14T01:43:58;101871.32;;;6.15;66.11
56582;BME280;42463;52.214;21.238;2023-02-14T01:46:24;101877.70;;;6.17;66.03
56582;BME280;42463;52.214;21.238;2023-02-14T01:48:49;101876.67;;;6.19;66.22
56582;BME280;42463;52.214;21.238;2023-02-14T01:51:15;101869.27;;;6.21;66.00
56582;BME280;42463;52.214;21.238;2023-02-14T01:53:41;101867.28;;;6.21;66.15
56582;BME280;42463;52.214;21.238;2023-02-14T01:56:10;101862.94;;;6.21;66.20
56582;BME280;42463;52.214;21.238;2023-02-14T01:58:39;101867.01;;;6.22;66.25
56582;BME280;42463;52.214;21.238;2023-02-14T02:01:43;101868.08;;;6.25;66.40
56582;BME280;42463;52.214;21.238;2023-02-14T02:04:10;101867.98;;;6.26;66.20
56582;BME280;42463;52.214;21.238;2023-02-14T02:06:40;101870.87;;;6.22;66.12
56582;BME280;42463;52.214;21.238;2023-02-14T02:09:13;101869.73;;;6.20;66.28
56582;BME280;42463;52.214;21.238;2023-02-14T02:11:40;101871.02;;;6.20;66.28
56582;BME280;42463;52.214;21.238;2023-02-14T02:14:05;101871.79;;;6.20;66.35
56582;BME280;42463;52.214;21.238;2023-02-14T02:16:42;101872.32;;;6.18;66.45
56582;BME280;42463;52.214;21.238;2023-02-14T02:24:56;101865.77;;;6.07;66.53
56582;BME280;42463;52.214;21.238;2023-02-14T02:27:27;101874.56;;;6.09;66.69
56582;BME280;42463;52.214;21.238;2023-02-14T02:35:49;101875.90;;;6.02;66.74
56582;BME280;42463;52.214;21.238;2023-02-14T02:38:28;101880.62;;;5.99;66.99
56582;BME280;42463;52.214;21.238;2023-02-14T02:41:03;101885.15;;;6.00;67.31
56582;BME280;42463;52.214;21.238;2023-02-14T02:43:40;101875.20;;;5.99;66.99
56582;BME280;42463;52.214;21.238;2023-02-14T02:46:13;101872.95;;;5.93;67.16
56582;BME280;42463;52.214;21.238;2023-02-14T02:49:05;101882.34;;;5.91;67.24
56582;BME280;42463;52.214;21.238;2023-02-14T02:51:36;101887.09;;;5.90;67.32
56582;BME280;42463;52.214;21.238;2023-02-14T02:54:28;101891.97;;;5.88;67.44
56582;BME280;42463;52.214;21.238;2023-02-14T02:56:58;101895.21;;;5.93;67.36
56582;BME280;42463;52.214;21.238;2023-02-14T02:59:28;101892.67;;;5.92;67.42
56582;BME280;42463;52.214;21.238;2023-02-14T03:01:58;101893.14;;;5.92;67.38
56582;BME280;42463;52.214;21.238;2023-02-14T03:04:27;101893.77;;;5.90;67.26
56582;BME280;42463;52.214;21.238;2023-02-14T03:07:11;101891.30;;;5.92;67.48
56582;BME280;42463;52.214;21.238;2023-02-14T03:09:55;101889.91;;;5.91;67.19
56582;BME280;42463;52.214;21.238;2023-02-14T03:12:36;101896.63;;;5.85;67.41
56582;BME280;42463;52.214;21.238;2023-02-14T03:15:10;101900.64;;;5.85;67.44
56582;BME280;42463;52.214;21.238;2023-02-14T03:17:44;101902.02;;;5.83;67.54
56582;BME280;42463;52.214;21.238;2023-02-14T03:20:19;101896.48;;;5.81;67.29
56582;BME280;42463;52.214;21.238;2023-02-14T03:22:50;101895.03;;;5.78;67.45
56582;BME280;42463;52.214;21.238;2023-02-14T03:25:25;101900.06;;;5.73;67.62
56582;BME280;42463;52.214;21.238;2023-02-14T03:28:00;101902.55;;;5.74;67.88
56582;BME280;42463;52.214;21.238;2023-02-14T03:30:34;101899.98;;;5.74;67.65
56582;BME280;42463;52.214;21.238;2023-02-14T03:33:07;101907.23;;;5.71;67.83
56582;BME280;42463;52.214;21.238;2023-02-14T03:35:39;101907.02;;;5.68;67.82
56582;BME280;42463;52.214;21.238;2023-02-14T03:38:11;101908.41;;;5.60;67.81
56582;BME280;42463;52.214;21.238;2023-02-14T03:40:41;101907.86;;;5.48;68.13
56582;BME280;42463;52.214;21.238;2023-02-14T03:43:11;101908.95;;;5.40;68.35
56582;BME280;42463;52.214;21.238;2023-02-14T03:45:43;101908.23;;;5.42;68.46
56582;BME280;42463;52.214;21.238;2023-02-14T03:48:11;101906.29;;;5.43;68.45
56582;BME280;42463;52.214;21.238;2023-02-14T03:50:39;101906.04;;;5.45;68.41
56582;BME280;42463;52.214;21.238;2023-02-14T03:53:08;101909.24;;;5.47;68.45
56582;BME280;42463;52.214;21.238;2023-02-14T03:55:37;101907.85;;;5.48;68.41
56582;BME280;42463;52.214;21.238;2023-02-14T03:58:09;101905.80;;;5.44;68.44
56582;BME280;42463;52.214;21.238;2023-02-14T04:00:40;101913.81;;;5.48;68.45
56582;BME280;42463;52.214;21.238;2023-02-14T04:03:09;101914.31;;;5.48;68.19
56582;BME280;42463;52.214;21.238;2023-02-14T04:05:35;101915.48;;;5.52;68.42
56582;BME280;42463;52.214;21.238;2023-02-14T04:08:03;101913.56;;;5.56;68.29
56582;BME280;42463;52.214;21.238;2023-02-14T04:10:28;101909.43;;;5.57;68.31
56582;BME280;42463;52.214;21.238;2023-02-14T04:12:52;101905.64;;;5.54;68.21
56582;BME280;42463;52.214;21.238;2023-02-14T04:15:18;101904.95;;;5.55;68.28
56582;BME280;42463;52.214;21.238;2023-02-14T04:17:42;101914.70;;;5.60;68.23
56582;BME280;42463;52.214;21.238;2023-02-14T04:20:25;101913.39;;;5.55;68.11
56582;BME280;42463;52.214;21.238;2023-02-14T04:22:50;101914.98;;;5.51;68.29
56582;BME280;42463;52.214;21.238;2023-02-14T04:25:16;101918.40;;;5.53;68.33
56582;BME280;42463;52.214;21.238;2023-02-14T04:27:41;101921.33;;;5.54;68.44
56582;BME280;42463;52.214;21.238;2023-02-14T04:30:07;101927.31;;;5.56;68.39
56582;BME280;42463;52.214;21.238;2023-02-14T04:32:32;101929.18;;;5.61;68.07
56582;BME280;42463;52.214;21.238;2023-02-14T04:34:57;101929.42;;;5.61;67.91
56582;BME280;42463;52.214;21.238;2023-02-14T04:37:22;101925.72;;;5.60;68.23
56582;BME280;42463;52.214;21.238;2023-02-14T04:39:47;101927.02;;;5.61;68.16
56582;BME280;42463;52.214;21.238;2023-02-14T04:42:11;101926.00;;;5.60;68.00
56582;BME280;42463;52.214;21.238;2023-02-14T04:44:36;101926.89;;;5.61;68.12
56582;BME280;42463;52.214;21.238;2023-02-14T04:47:02;101927.39;;;5.61;68.16
56582;BME280;42463;52.214;21.238;2023-02-14T04:49:26;101930.91;;;5.63;68.23
56582;BME280;42463;52.214;21.238;2023-02-14T04:51:51;101936.38;;;5.61;68.17
56582;BME280;42463;52.214;21.238;2023-02-14T04:54:16;101939.56;;;5.56;68.23
56582;BME280;42463;52.214;21.238;2023-02-14T04:56:41;101935.66;;;5.50;68.27
56582;BME280;42463;52.214;21.238;2023-02-14T04:59:08;101940.84;;;5.50;68.54
56582;BME280;42463;52.214;21.238;2023-02-14T05:01:33;101944.59;;;5.48;68.50
56582;BME280;42463;52.214;21.238;2023-02-14T05:03:58;101939.64;;;5.44;68.48
56582;BME280;42463;52.214;21.238;2023-02-14T05:06:23;101938.51;;;5.37;68.54
56582;BME280;42463;52.214;21.238;2023-02-14T05:08:48;101947.60;;;5.32;68.98
56582;BME280;42463;52.214;21.238;2023-02-14T05:11:12;101947.23;;;5.35;69.02
56582;BME280;42463;52.214;21.238;2023-02-14T05:13:37;101940.29;;;5.35;69.18
56582;BME280;42463;52.214;21.238;2023-02-14T05:16:02;101944.81;;;5.36;68.81
56582;BME280;42463;52.214;21.238;2023-02-14T05:18:27;101945.07;;;5.37;68.91
56582;BME280;42463;52.214;21.238;2023-02-14T05:20:53;101952.11;;;5.39;69.01
56582;BME280;42463;52.214;21.238;2023-02-14T05:23:18;101955.13;;;5.41;69.09
56582;BME280;42463;52.214;21.238;2023-02-14T05:25:43;101960.45;;;5.43;69.21
56582;BME280;42463;52.214;21.238;2023-02-14T05:28:11;101958.54;;;5.45;68.94
56582;BME280;42463;52.214;21.238;2023-02-14T05:30:38;101960.62;;;5.43;68.71
56582;BME280;42463;52.214;21.238;2023-02-14T05:33:03;101964.52;;;5.43;69.36
56582;BME280;42463;52.214;21.238;2023-02-14T05:35:28;101962.58;;;5.47;69.07
56582;BME280;42463;52.214;21.238;2023-02-14T05:37:57;101964.00;;;5.48;68.97
56582;BME280;42463;52.214;21.238;2023-02-14T05:40:32;101964.70;;;5.42;68.96
56582;BME280;42463;52.214;21.238;2023-02-14T05:42:57;101963.05;;;5.39;68.96
56582;BME280;42463;52.214;21.238;2023-02-14T05:45:22;101958.05;;;5.33;68.98
56582;BME280;42463;52.214;21.238;2023-02-14T05:47:47;101954.85;;;5.27;69.14
56582;BME280;42463;52.214;21.238;2023-02-14T05:50:13;101965.17;;;5.28;69.58
56582;BME280;42463;52.214;21.238;2023-02-14T05:52:38;101963.94;;;5.33;69.57
56582;BME280;42463;52.214;21.238;2023-02-14T05:55:03;101963.98;;;5.39;69.60
56582;BME280;42463;52.214;21.238;2023-02-14T05:57:28;101960.08;;;5.43;69.26
56582;BME280;42463;52.214;21.238;2023-02-14T05:59:53;101960.77;;;5.42;68.98
56582;BME280;42463;52.214;21.238;2023-02-14T06:02:18;101965.73;;;5.39;69.40
56582;BME280;42463;52.214;21.238;2023-02-14T06:04:42;101973.38;;;5.35;69.14
56582;BME280;42463;52.214;21.238;2023-02-14T06:07:07;101973.91;;;5.25;68.91
56582;BME280;42463;52.214;21.238;2023-02-14T06:09:32;101974.91;;;5.21;69.34
56582;BME280;42463;52.214;21.238;2023-02-14T06:11:57;101980.09;;;5.21;69.49
56582;BME280;42463;52.214;21.238;2023-02-14T06:14:22;101986.01;;;5.21;69.73
56582;BME280;42463;52.214;21.238;2023-02-14T06:16:47;101987.59;;;5.25;69.53
56582;BME280;42463;52.214;21.238;2023-02-14T06:19:14;101988.98;;;5.24;69.61
56582;BME280;42463;52.214;21.238;2023-02-14T06:21:39;101989.67;;;5.22;69.52
56582;BME280;42463;52.214;21.238;2023-02-14T06:24:04;101989.13;;;5.19;69.74
56582;BME280;42463;52.214;21.238;2023-02-14T06:26:29;101991.36;;;5.17;69.78
56582;BME280;42463;52.214;21.238;2023-02-14T06:28:55;101991.15;;;5.12;69.91
56582;BME280;42463;52.214;21.238;2023-02-14T06:31:22;101992.22;;;5.09;69.82
56582;BME280;42463;52.214;21.238;2023-02-14T06:33:50;101988.99;;;5.05;69.92
56582;BME280;42463;52.214;21.238;2023-02-14T06:36:15;101981.98;;;5.03;70.14
56582;BME280;42463;52.214;21.238;2023-02-14T06:38:40;101984.89;;;5.06;70.20
56582;BME280;42463;52.214;21.238;2023-02-14T06:41:05;101986.10;;;5.09;70.14
56582;BME280;42463;52.214;21.238;2023-02-14T06:43:32;101984.98;;;5.11;69.97
56582;BME280;42463;52.214;21.238;2023-02-14T06:45:59;101985.84;;;5.13;70.04
56582;BME280;42463;52.214;21.238;2023-02-14T06:48:25;101986.98;;;5.13;70.12
56582;BME280;42463;52.214;21.238;2023-02-14T06:50:50;101987.38;;;5.09;70.06
56582;BME280;42463;52.214;21.238;2023-02-14T06:53:16;101988.05;;;5.10;70.16
56582;BME280;42463;52.214;21.238;2023-02-14T06:55:41;101993.42;;;5.10;70.15
56582;BME280;42463;52.214;21.238;2023-02-14T06:58:06;101992.66;;;5.13;70.10
56582;BME280;42463;52.214;21.238;2023-02-14T07:00:31;101994.40;;;5.18;69.86
56582;BME280;42463;52.214;21.238;2023-02-14T07:02:56;101995.79;;;5.17;70.05
56582;BME280;42463;52.214;21.238;2023-02-14T07:05:21;101997.66;;;5.15;69.84
56582;BME280;42463;52.214;21.238;2023-02-14T07:07:46;101994.99;;;5.16;70.28
56582;BME280;42463;52.214;21.238;2023-02-14T07:10:12;101996.17;;;5.17;70.08
56582;BME280;42463;52.214;21.238;2023-02-14T07:12:37;101996.41;;;5.15;70.25
56582;BME280;42463;52.214;21.238;2023-02-14T07:15:02;101997.79;;;5.11;70.23
56582;BME280;42463;52.214;21.238;2023-02-14T07:17:27;101999.65;;;5.13;70.45
56582;BME280;42463;52.214;21.238;2023-02-14T07:19:52;102004.38;;;5.16;70.42
56582;BME280;42463;52.214;21.238;2023-02-14T07:22:17;102009.20;;;5.19;70.34
56582;BME280;42463;52.214;21.238;2023-02-14T07:24:41;102013.02;;;5.25;70.41
56582;BME280;42463;52.214;21.238;2023-02-14T07:27:06;102011.23;;;5.26;70.18
56582;BME280;42463;52.214;21.238;2023-02-14T07:29:31;102017.38;;;5.31;70.08
56582;BME280;42463;52.214;21.238;2023-02-14T07:31:56;102023.67;;;5.30;69.91
56582;BME280;42463;52.214;21.238;2023-02-14T07:34:21;102033.05;;;5.32;69.95
56582;BME280;42463;52.214;21.238;2023-02-14T07:36:45;102032.73;;;5.37;70.07
56582;BME280;42463;52.214;21.238;2023-02-14T07:39:10;102037.67;;;5.38;70.01
56582;BME280;42463;52.214;21.238;2023-02-14T07:41:35;102035.70;;;5.39;69.91
56582;BME280;42463;52.214;21.238;2023-02-14T07:44:30;102037.68;;;5.36;69.67
56582;BME280;42463;52.214;21.238;2023-02-14T07:46:56;102035.83;;;5.32;69.59
56582;BME280;42463;52.214;21.238;2023-02-14T07:49:21;102040.96;;;5.30;69.67
56582;BME280;42463;52.214;21.238;2023-02-14T07:51:46;102045.78;;;5.33;69.82
56582;BME280;42463;52.214;21.238;2023-02-14T07:54:12;102051.64;;;5.39;70.10
56582;BME280;42463;52.214;21.238;2023-02-14T07:56:39;102057.08;;;5.47;69.99
56582;BME280;42463;52.214;21.238;2023-02-14T07:59:04;102056.73;;;5.52;69.81
56582;BME280;42463;52.214;21.238;2023-02-14T08:01:31;102056.60;;;5.55;69.38
56582;BME280;42463;52.214;21.238;2023-02-14T08:03:56;102057.52;;;5.58;69.26
56582;BME280;42463;52.214;21.238;2023-02-14T08:06:23;102057.15;;;5.58;69.36
56582;BME280;42463;52.214;21.238;2023-02-14T08:08:50;102063.46;;;5.60;69.25
56582;BME280;42463;52.214;21.238;2023-02-14T08:11:15;102057.95;;;5.52;68.71
56582;BME280;42463;52.214;21.238;2023-02-14T08:14:00;102068.42;;;5.42;69.25
56582;BME280;42463;52.214;21.238;2023-02-14T08:16:25;102065.96;;;5.46;69.56
56582;BME280;42463;52.214;21.238;2023-02-14T08:18:50;102066.88;;;5.49;69.41
56582;BME280;42463;52.214;21.238;2023-02-14T08:21:15;102064.83;;;5.50;69.08
56582;BME280;42463;52.214;21.238;2023-02-14T08:23:40;102060.30;;;5.51;69.41
56582;BME280;42463;52.214;21.238;2023-02-14T08:26:04;102059.45;;;5.56;69.61
56582;BME280;42463;52.214;21.238;2023-02-14T08:28:30;102065.22;;;5.63;69.60
56582;BME280;42463;52.214;21.238;2023-02-14T08:30:55;102063.54;;;5.69;69.38
56582;BME280;42463;52.214;21.238;2023-02-14T08:33:21;102068.44;;;5.75;69.51
56582;BME280;42463;52.214;21.238;2023-02-14T08:35:46;102070.98;;;5.78;69.14
56582;BME280;42463;52.214;21.238;2023-02-14T08:38:11;102074.41;;;5.77;68.88
56582;BME280;42463;52.214;21.238;2023-02-14T08:40:35;102083.13;;;5.77;68.96
56582;BME280;42463;52.214;21.238;2023-02-14T08:43:01;102073.67;;;5.76;68.86
56582;BME280;42463;52.214;21.238;2023-02-14T08:45:27;102079.77;;;5.76;68.76
56582;BME280;42463;52.214;21.238;2023-02-14T08:47:52;102080.00;;;5.77;68.57
56582;BME280;42463;52.214;21.238;2023-02-14T08:50:18;102077.64;;;5.77;68.83
56582;BME280;42463;52.214;21.238;2023-02-14T08:52:43;102082.98;;;5.83;68.88
56582;BME280;42463;52.214;21.238;2023-02-14T08:55:21;102084.79;;;5.90;68.67
56582;BME280;42463;52.214;21.238;2023-02-14T08:57:46;102080.92;;;5.97;69.03
56582;BME280;42463;52.214;21.238;2023-02-14T09:00:13;102081.42;;;6.04;68.65
56582;BME280;42463;52.214;21.238;2023-02-14T09:02:38;102079.19;;;6.05;67.97
56582;BME280;42463;52.214;21.238;2023-02-14T09:05:04;102073.40;;;6.01;68.00
56582;BME280;42463;52.214;21.238;2023-02-14T09:07:31;102075.91;;;6.03;68.05
56582;BME280;42463;52.214;21.238;2023-02-14T09:09:56;102073.69;;;6.03;67.91
56582;BME280;42463;52.214;21.238;2023-02-14T09:12:21;102073.91;;;6.04;68.01
56582;BME280;42463;52.214;21.238;2023-02-14T09:14:45;102078.27;;;6.04;67.91
56582;BME280;42463;52.214;21.238;2023-02-14T09:17:11;102077.14;;;6.04;68.06
56582;BME280;42463;52.214;21.238;2023-02-14T09:19:37;102080.90;;;6.06;67.85
56582;BME280;42463;52.214;21.238;2023-02-14T09:22:02;102084.33;;;6.10;68.16
56582;BME280;42463;52.214;21.238;2023-02-14T09:24:27;102083.72;;;6.17;68.12
56582;BME280;42463;52.214;21.238;2023-02-14T09:26:56;102088.45;;;6.21;67.99
56582;BME280;42463;52.214;21.238;2023-02-14T09:29:20;102085.07;;;6.24;67.97
56582;BME280;42463;52.214;21.238;2023-02-14T09:31:45;102085.69;;;6.28;67.64
56582;BME280;42463;52.214;21.238;2023-02-14T09:34:11;102088.05;;;6.18;67.20
56582;BME280;42463;52.214;21.238;2023-02-14T09:36:36;102091.00;;;6.13;67.46
56582;BME280;42463;52.214;21.238;2023-02-14T09:39:19;102089.89;;;6.12;67.46
56582;BME280;42463;52.214;21.238;2023-02-14T09:42:01;102103.20;;;6.12;67.47
56582;BME280;42463;52.214;21.238;2023-02-14T09:44:32;102100.70;;;6.13;67.46
56582;BME280;42463;52.214;21.238;2023-02-14T09:47:21;102093.08;;;6.11;67.60
56582;BME280;42463;52.214;21.238;2023-02-14T09:49:58;102094.89;;;6.11;67.52
56582;BME280;42463;52.214;21.238;2023-02-14T09:52:27;102094.98;;;6.14;67.64
56582;BME280;42463;52.214;21.238;2023-02-14T09:54:57;102093.11;;;6.21;67.69
56582;BME280;42463;52.214;21.238;2023-02-14T09:57:30;102089.26;;;6.19;67.42
56582;BME280;42463;52.214;21.238;2023-02-14T10:00:05;102089.48;;;6.20;67.48
56582;BME280;42463;52.214;21.238;2023-02-14T10:03:06;102084.73;;;6.18;66.91
56582;BME280;42463;52.214;21.238;2023-02-14T10:05:59;102086.73;;;6.16;67.32
56582;BME280;42463;52.214;21.238;2023-02-14T10:08:39;102086.88;;;6.20;67.27
56582;BME280;42463;52.214;21.238;2023-02-14T10:11:25;102087.84;;;6.28;67.31
56582;BME280;42463;52.214;21.238;2023-02-14T10:13:57;102088.66;;;6.33;66.99
56582;BME280;42463;52.214;21.238;2023-02-14T10:16:26;102087.64;;;6.39;67.52
56582;BME280;42463;52.214;21.238;2023-02-14T10:18:57;102085.41;;;6.40;66.98
56582;BME280;42463;52.214;21.238;2023-02-14T10:21:27;102083.63;;;6.37;67.29
56582;BME280;42463;52.214;21.238;2023-02-14T10:23:59;102083.05;;;6.43;67.56
56582;BME280;42463;52.214;21.238;2023-02-14T10:26:29;102083.23;;;6.45;66.98
56582;BME280;42463;52.214;21.238;2023-02-14T10:28:56;102090.91;;;6.33;66.83
56582;BME280;42463;52.214;21.238;2023-02-14T10:31:23;102089.48;;;6.35;67.67
56582;BME280;42463;52.214;21.238;2023-02-14T10:33:53;102092.16;;;6.39;67.58
56582;BME280;42463;52.214;21.238;2023-02-14T10:36:24;102091.32;;;6.39;67.34
56582;BME280;42463;52.214;21.238;2023-02-14T10:38:59;102088.42;;;6.39;67.12
56582;BME280;42463;52.214;21.238;2023-02-14T10:41:34;102096.75;;;6.42;67.52
56582;BME280;42463;52.214;21.238;2023-02-14T10:44:13;102096.14;;;6.48;67.21
56582;BME280;42463;52.214;21.238;2023-02-14T10:46:46;102097.27;;;6.52;66.97
56582;BME280;42463;52.214;21.238;2023-02-14T10:49:25;102096.14;;;6.51;66.24
56582;BME280;42463;52.214;21.238;2023-02-14T10:51:54;102091.55;;;6.40;66.32
56582;BME280;42463;52.214;21.238;2023-02-14T10:54:23;102091.79;;;6.39;66.51
56582;BME280;42463;52.214;21.238;2023-02-14T10:56:52;102092.67;;;6.41;67.09
56582;BME280;42463;52.214;21.238;2023-02-14T10:59:23;102097.54;;;6.38;66.36
56582;BME280;42463;52.214;21.238;2023-02-14T11:01:50;102088.68;;;6.40;66.91
56582;BME280;42463;52.214;21.238;2023-02-14T11:04:17;102086.89;;;6.43;66.96
56582;BME280;42463;52.214;21.238;2023-02-14T11:06:43;102082.45;;;6.48;66.75
56582;BME280;42463;52.214;21.238;2023-02-14T11:09:11;102084.73;;;6.54;66.89
56582;BME280;42463;52.214;21.238;2023-02-14T11:11:39;102090.17;;;6.61;66.70
56582;BME280;42463;52.214;21.238;2023-02-14T11:14:20;102091.48;;;6.68;66.83
56582;BME280;42463;52.214;21.238;2023-02-14T11:16:45;102089.29;;;6.69;66.16
56582;BME280;42463;52.214;21.238;2023-02-14T11:19:22;102091.45;;;6.61;66.04
56582;BME280;42463;52.214;21.238;2023-02-14T11:21:51;102087.28;;;6.59;65.96
56582;BME280;42463;52.214;21.238;2023-02-14T11:24:31;102084.95;;;6.59;66.57
56582;BME280;42463;52.214;21.238;2023-02-14T11:26:59;102088.56;;;6.61;66.70
56582;BME280;42463;52.214;21.238;2023-02-14T11:29:28;102087.85;;;6.67;66.72
56582;BME280;42463;52.214;21.238;2023-02-14T11:31:54;102090.34;;;6.67;66.17
56582;BME280;42463;52.214;21.238;2023-02-14T11:34:32;102089.15;;;6.71;66.27
56582;BME280;42463;52.214;21.238;2023-02-14T11:36:59;102080.89;;;6.74;65.97
56582;BME280;42463;52.214;21.238;2023-02-14T11:39:30;102081.83;;;6.77;66.12
56582;BME280;42463;52.214;21.238;2023-02-14T11:41:56;102076.59;;;6.72;65.82
56582;BME280;42463;52.214;21.238;2023-02-14T11:44:24;102075.41;;;6.72;65.98
56582;BME280;42463;52.214;21.238;2023-02-14T11:46:49;102071.35;;;6.68;65.73
56582;BME280;42463;52.214;21.238;2023-02-14T11:49:27;102069.16;;;6.68;66.38
56582;BME280;42463;52.214;21.238;2023-02-14T11:51:52;102069.61;;;6.75;66.19
56582;BME280;42463;52.214;21.238;2023-02-14T11:54:28;102066.41;;;6.79;66.35
56582;BME280;42463;52.214;21.238;2023-02-14T11:56:55;102064.52;;;6.76;65.67
56582;BME280;42463;52.214;21.238;2023-02-14T11:59:29;102062.05;;;6.78;66.27
56582;BME280;42463;52.214;21.238;2023-02-14T12:01:56;102058.67;;;6.84;66.24
56582;BME280;42463;52.214;21.238;2023-02-14T12:04:28;102059.43;;;6.88;66.06
56582;BME280;42463;52.214;21.238;2023-02-14T12:06:54;102057.68;;;6.84;65.64
56582;BME280;42463;52.214;21.238;2023-02-14T12:09:27;102059.80;;;6.80;65.60
56582;BME280;42463;52.214;21.238;2023-02-14T12:11:54;102062.77;;;6.80;65.87
56582;BME280;42463;52.214;21.238;2023-02-14T12:14:23;102057.73;;;6.84;66.05
56582;BME280;42463;52.214;21.238;2023-02-14T12:16:54;102058.64;;;6.91;66.05
56582;BME280;42463;52.214;21.238;2023-02-14T12:19:26;102054.48;;;6.98;65.96
56582;BME280;42463;52.214;21.238;2023-02-14T12:21:58;102050.81;;;7.08;65.60
56582;BME280;42463;52.214;21.238;2023-02-14T12:24:29;102047.79;;;7.13;65.54
56582;BME280;42463;52.214;21.238;2023-02-14T12:27:03;102039.74;;;7.10;64.75
56582;BME280;42463;52.214;21.238;2023-02-14T12:29:34;102044.90;;;7.03;65.15
56582;BME280;42463;52.214;21.238;2023-02-14T12:32:06;102039.73;;;7.06;65.48
56582;BME280;42463;52.214;21.238;2023-02-14T12:34:36;102041.11;;;7.09;65.15
56582;BME280;42463;52.214;21.238;2023-02-14T12:37:12;102036.83;;;7.09;64.93
56582;BME280;42463;52.214;21.238;2023-02-14T12:39:51;102042.48;;;7.14;65.25
56582;BME280;42463;52.214;21.238;2023-02-14T12:42:31;102040.12;;;7.14;65.11
56582;BME280;42463;52.214;21.238;2023-02-14T12:45:06;102037.90;;;7.16;65.44
56582;BME280;42463;52.214;21.238;2023-02-14T12:47:40;102036.15;;;7.16;64.77
56582;BME280;42463;52.214;21.238;2023-02-14T12:50:26;102037.16;;;7.05;64.42
56582;BME280;42463;52.214;21.238;2023-02-14T12:53:02;102039.03;;;7.01;65.26
56582;BME280;42463;52.214;21.238;2023-02-14T12:55:51;102034.77;;;7.02;65.31
56582;BME280;42463;52.214;21.238;2023-02-14T12:58:26;102033.71;;;7.05;64.84
56582;BME280;42463;52.214;21.238;2023-02-14T13:01:05;102032.14;;;6.97;64.63
56582;BME280;42463;52.214;21.238;2023-02-14T13:04:05;102030.83;;;6.95;65.34
56582;BME280;42463;52.214;21.238;2023-02-14T13:06:37;102033.76;;;6.86;65.28
56582;BME280;42463;52.214;21.238;2023-02-14T13:09:17;102036.94;;;6.81;65.35
56582;BME280;42463;52.214;21.238;2023-02-14T13:11:51;102038.48;;;6.78;65.81